sensor_id;sensor_type;location;lat;lon;timestamp;P1;durP1;ratioP1;P2;durP2;ratioP2
20535;SDS011;10426;49.420;8.390;2023-03-14T00:01:25;0.70;;;0.70;;
20535;SDS011;10426;49.420;8.390;2023-03-14T00:03:51;1.00;;;0.70;;
20535;SDS011;10426;49.420;8.390;2023-03-14T00:06:18;0.60;;;0.60;;
20535;SDS011;10426;49.420;8.390;2023-03-14T00:08:44;0.60;;;0.60;;
20535;SDS011;10426;49.420;8.390;2023-03-14T00:11:12;0.80;;;0.80;;
20535;SDS011;10426;49.420;8.390;2023-03-14T00:13:40;0.80;;;0.80;;
20535;SDS011;10426;49.420;8.390;2023-03-14T00:16:08;1.10;;;0.60;;
20535;SDS011;10426;49.420;8.390;2023-03-14T00:18:35;1.30;;;0.70;;
20535;SDS011;10426;49.420;8.390;2023-03-14T00:21:02;0.60;;;0.60;;
20535;SDS011;10426;49.420;8.390;2023-03-14T00:23:29;1.60;;;1.00;;
20535;SDS011;10426;49.420;8.390;2023-03-14T00:25:58;1.30;;;0.70;;
20535;SDS011;10426;49.420;8.390;2023-03-14T00:28:24;0.80;;;0.80;;
20535;SDS011;10426;49.420;8.390;2023-03-14T00:30:52;0.68;;;0.68;;
20535;SDS011;10426;49.420;8.390;2023-03-14T00:33:19;1.38;;;0.60;;
20535;SDS011;10426;49.420;8.390;2023-03-14T00:35:51;0.90;;;0.70;;
20535;SDS011;10426;49.420;8.390;2023-03-14T00:38:18;2.17;;;0.80;;
20535;SDS011;10426;49.420;8.390;2023-03-14T00:40:45;0.80;;;0.80;;
20535;SDS011;10426;49.420;8.390;2023-03-14T00:43:11;0.73;;;0.73;;
20535;SDS011;10426;49.420;8.390;2023-03-14T00:45:38;1.02;;;0.80;;
20535;SDS011;10426;49.420;8.390;2023-03-14T00:48:06;0.77;;;0.77;;
20535;SDS011;10426;49.420;8.390;2023-03-14T00:50:33;0.90;;;0.88;;
20535;SDS011;10426;49.420;8.390;2023-03-14T00:52:59;1.08;;;0.98;;
20535;SDS011;10426;49.420;8.390;2023-03-14T00:55:26;0.80;;;0.80;;
20535;SDS011;10426;49.420;8.390;2023-03-14T00:57:53;1.00;;;0.90;;
20535;SDS011;10426;49.420;8.390;2023-03-14T01:00:19;1.85;;;0.80;;
20535;SDS011;10426;49.420;8.390;2023-03-14T01:02:46;0.80;;;0.70;;
20535;SDS011;10426;49.420;8.390;2023-03-14T01:05:14;1.30;;;0.70;;
20535;SDS011;10426;49.420;8.390;2023-03-14T01:07:40;1.52;;;0.70;;
20535;SDS011;10426;49.420;8.390;2023-03-14T01:10:08;1.10;;;1.00;;
20535;SDS011;10426;49.420;8.390;2023-03-14T01:12:34;1.85;;;1.25;;
20535;SDS011;10426;49.420;8.390;2023-03-14T01:15:01;0.70;;;0.70;;
20535;SDS011;10426;49.420;8.390;2023-03-14T01:17:28;1.00;;;0.90;;
20535;SDS011;10426;49.420;8.390;2023-03-14T01:19:54;3.40;;;1.20;;
20535;SDS011;10426;49.420;8.390;2023-03-14T01:22:22;1.00;;;0.90;;
20535;SDS011;10426;49.420;8.390;2023-03-14T01:24:49;0.77;;;0.77;;
20535;SDS011;10426;49.420;8.390;2023-03-14T01:27:15;0.95;;;0.90;;
20535;SDS011;10426;49.420;8.390;2023-03-14T01:29:42;1.00;;;0.95;;
20535;SDS011;10426;49.420;8.390;2023-03-14T01:32:09;0.80;;;0.80;;
20535;SDS011;10426;49.420;8.390;2023-03-14T01:34:35;0.70;;;0.70;;
20535;SDS011;10426;49.420;8.390;2023-03-14T01:37:02;0.90;;;0.80;;
20535;SDS011;10426;49.420;8.390;2023-03-14T01:39:30;1.05;;;1.05;;
20535;SDS011;10426;49.420;8.390;2023-03-14T01:41:57;1.20;;;1.05;;
20535;SDS011;10426;49.420;8.390;2023-03-14T01:44:24;1.75;;;0.93;;
20535;SDS011;10426;49.420;8.390;2023-03-14T01:46:51;1.60;;;0.90;;
20535;SDS011;10426;49.420;8.390;2023-03-14T01:49:19;1.80;;;0.90;;
20535;SDS011;10426;49.420;8.390;2023-03-14T01:51:49;1.08;;;0.80;;
20535;SDS011;10426;49.420;8.390;2023-03-14T01:54:18;1.15;;;1.00;;
20535;SDS011;10426;49.420;8.390;2023-03-14T01:56:48;1.92;;;0.90;;
20535;SDS011;10426;49.420;8.390;2023-03-14T01:59:16;1.10;;;1.00;;
20535;SDS011;10426;49.420;8.390;2023-03-14T02:01:43;0.90;;;0.90;;
20535;SDS011;10426;49.420;8.390;2023-03-14T02:04:11;1.08;;;0.90;;
20535;SDS011;10426;49.420;8.390;2023-03-14T02:06:40;1.73;;;1.00;;
20535;SDS011;10426;49.420;8.390;2023-03-14T02:09:10;0.80;;;0.75;;
20535;SDS011;10426;49.420;8.390;2023-03-14T02:11:36;1.27;;;0.90;;
20535;SDS011;10426;49.420;8.390;2023-03-14T02:14:05;1.60;;;1.10;;
20535;SDS011;10426;49.420;8.390;2023-03-14T02:16:32;1.65;;;1.08;;
20535;SDS011;10426;49.420;8.390;2023-03-14T02:18:58;2.03;;;1.00;;
20535;SDS011;10426;49.420;8.390;2023-03-14T02:21:27;0.80;;;0.80;;
20535;SDS011;10426;49.420;8.390;2023-03-14T02:23:59;1.40;;;0.93;;
20535;SDS011;10426;49.420;8.390;2023-03-14T02:26:28;1.40;;;0.90;;
20535;SDS011;10426;49.420;8.390;2023-03-14T02:28:58;0.93;;;0.80;;
20535;SDS011;10426;49.420;8.390;2023-03-14T02:31:25;1.03;;;0.90;;
20535;SDS011;10426;49.420;8.390;2023-03-14T02:33:51;1.20;;;0.90;;
20535;SDS011;10426;49.420;8.390;2023-03-14T02:36:18;1.85;;;0.90;;
20535;SDS011;10426;49.420;8.390;2023-03-14T02:38:46;1.85;;;0.95;;
20535;SDS011;10426;49.420;8.390;2023-03-14T02:41:13;3.20;;;1.17;;
20535;SDS011;10426;49.420;8.390;2023-03-14T02:43:40;1.48;;;0.82;;
20535;SDS011;10426;49.420;8.390;2023-03-14T02:46:08;1.40;;;1.00;;
20535;SDS011;10426;49.420;8.390;2023-03-14T02:48:37;1.10;;;1.00;;
20535;SDS011;10426;49.420;8.390;2023-03-14T02:51:05;3.47;;;1.02;;
20535;SDS011;10426;49.420;8.390;2023-03-14T02:53:32;2.00;;;1.05;;
20535;SDS011;10426;49.420;8.390;2023-03-14T02:55:59;4.20;;;1.20;;
20535;SDS011;10426;49.420;8.390;2023-03-14T02:58:26;1.77;;;1.00;;
20535;SDS011;10426;49.420;8.390;2023-03-14T03:00:53;3.22;;;1.23;;
20535;SDS011;10426;49.420;8.390;2023-03-14T03:03:21;1.98;;;1.02;;
20535;SDS011;10426;49.420;8.390;2023-03-14T03:05:48;2.25;;;1.20;;
20535;SDS011;10426;49.420;8.390;2023-03-14T03:08:15;1.00;;;0.98;;
20535;SDS011;10426;49.420;8.390;2023-03-14T03:10:42;2.20;;;1.23;;
20535;SDS011;10426;49.420;8.390;2023-03-14T03:13:09;1.90;;;0.98;;
20535;SDS011;10426;49.420;8.390;2023-03-14T03:15:35;1.80;;;1.00;;
20535;SDS011;10426;49.420;8.390;2023-03-14T03:18:02;1.70;;;1.00;;
20535;SDS011;10426;49.420;8.390;2023-03-14T03:20:30;1.70;;;1.20;;
20535;SDS011;10426;49.420;8.390;2023-03-14T03:22:58;1.75;;;1.10;;
20535;SDS011;10426;49.420;8.390;2023-03-14T03:25:24;2.33;;;1.10;;
20535;SDS011;10426;49.420;8.390;2023-03-14T03:27:51;2.17;;;1.30;;
20535;SDS011;10426;49.420;8.390;2023-03-14T03:30:18;1.48;;;1.23;;
20535;SDS011;10426;49.420;8.390;2023-03-14T03:32:44;1.38;;;1.13;;
20535;SDS011;10426;49.420;8.390;2023-03-14T03:35:11;2.10;;;1.00;;
20535;SDS011;10426;49.420;8.390;2023-03-14T03:37:39;2.47;;;1.25;;
20535;SDS011;10426;49.420;8.390;2023-03-14T03:40:06;1.77;;;1.10;;
20535;SDS011;10426;49.420;8.390;2023-03-14T03:42:34;2.22;;;1.15;;
20535;SDS011;10426;49.420;8.390;2023-03-14T03:45:01;3.63;;;1.30;;
20535;SDS011;10426;49.420;8.390;2023-03-14T03:47:27;1.77;;;1.23;;
20535;SDS011;10426;49.420;8.390;2023-03-14T03:49:54;2.60;;;1.30;;
20535;SDS011;10426;49.420;8.390;2023-03-14T03:52:21;1.58;;;1.10;;
20535;SDS011;10426;49.420;8.390;2023-03-14T03:54:48;1.60;;;0.97;;
20535;SDS011;10426;49.420;8.390;2023-03-14T03:57:15;1.30;;;1.00;;
20535;SDS011;10426;49.420;8.390;2023-03-14T03:59:42;1.63;;;1.02;;
20535;SDS011;10426;49.420;8.390;2023-03-14T04:02:08;1.52;;;1.20;;
20535;SDS011;10426;49.420;8.390;2023-03-14T04:04:35;2.13;;;1.10;;
20535;SDS011;10426;49.420;8.390;2023-03-14T04:07:03;1.10;;;1.00;;
20535;SDS011;10426;49.420;8.390;2023-03-14T04:09:30;1.77;;;1.10;;
20535;SDS011;10426;49.420;8.390;2023-03-14T04:11:58;1.65;;;1.00;;
20535;SDS011;10426;49.420;8.390;2023-03-14T04:14:24;1.63;;;1.10;;
20535;SDS011;10426;49.420;8.390;2023-03-14T04:16:51;2.35;;;1.10;;
20535;SDS011;10426;49.420;8.390;2023-03-14T04:19:17;1.30;;;1.10;;
20535;SDS011;10426;49.420;8.390;2023-03-14T04:21:44;1.50;;;1.10;;
20535;SDS011;10426;49.420;8.390;2023-03-14T04:24:12;2.13;;;1.17;;
20535;SDS011;10426;49.420;8.390;2023-03-14T04:26:38;2.20;;;1.10;;
20535;SDS011;10426;49.420;8.390;2023-03-14T04:29:06;1.77;;;1.13;;
20535;SDS011;10426;49.420;8.390;2023-03-14T04:31:33;1.52;;;1.10;;
20535;SDS011;10426;49.420;8.390;2023-03-14T04:34:00;1.73;;;1.10;;
20535;SDS011;10426;49.420;8.390;2023-03-14T04:36:26;2.50;;;1.58;;
20535;SDS011;10426;49.420;8.390;2023-03-14T04:38:53;1.67;;;1.30;;
20535;SDS011;10426;49.420;8.390;2023-03-14T04:41:19;3.60;;;1.13;;
20535;SDS011;10426;49.420;8.390;2023-03-14T04:43:46;1.98;;;1.15;;
20535;SDS011;10426;49.420;8.390;2023-03-14T04:46:14;1.52;;;1.20;;
20535;SDS011;10426;49.420;8.390;2023-03-14T04:48:41;2.33;;;1.30;;
20535;SDS011;10426;49.420;8.390;2023-03-14T04:51:07;3.17;;;1.33;;
20535;SDS011;10426;49.420;8.390;2023-03-14T04:53:34;2.00;;;1.20;;
20535;SDS011;10426;49.420;8.390;2023-03-14T04:56:02;2.17;;;1.30;;
20535;SDS011;10426;49.420;8.390;2023-03-14T04:58:29;2.28;;;1.30;;
20535;SDS011;10426;49.420;8.390;2023-03-14T05:00:55;2.72;;;1.42;;
20535;SDS011;10426;49.420;8.390;2023-03-14T05:03:23;5.53;;;1.67;;
20535;SDS011;10426;49.420;8.390;2023-03-14T05:05:50;6.53;;;2.38;;
20535;SDS011;10426;49.420;8.390;2023-03-14T05:08:16;9.10;;;2.25;;
20535;SDS011;10426;49.420;8.390;2023-03-14T05:10:43;5.30;;;1.77;;
20535;SDS011;10426;49.420;8.390;2023-03-14T05:13:10;3.50;;;1.40;;
20535;SDS011;10426;49.420;8.390;2023-03-14T05:15:36;5.03;;;1.52;;
20535;SDS011;10426;49.420;8.390;2023-03-14T05:18:03;2.90;;;1.20;;
20535;SDS011;10426;49.420;8.390;2023-03-14T05:20:31;2.70;;;1.35;;
20535;SDS011;10426;49.420;8.390;2023-03-14T05:22:58;2.30;;;1.17;;
20535;SDS011;10426;49.420;8.390;2023-03-14T05:25:24;1.83;;;1.10;;
20535;SDS011;10426;49.420;8.390;2023-03-14T05:27:53;2.13;;;1.00;;
20535;SDS011;10426;49.420;8.390;2023-03-14T05:30:19;2.25;;;1.27;;
20535;SDS011;10426;49.420;8.390;2023-03-14T05:32:46;2.83;;;1.20;;
20535;SDS011;10426;49.420;8.390;2023-03-14T05:35:13;1.52;;;1.05;;
20535;SDS011;10426;49.420;8.390;2023-03-14T05:37:41;2.20;;;1.10;;
20535;SDS011;10426;49.420;8.390;2023-03-14T05:40:08;2.70;;;1.20;;
20535;SDS011;10426;49.420;8.390;2023-03-14T05:42:35;1.73;;;1.08;;
20535;SDS011;10426;49.420;8.390;2023-03-14T05:45:01;3.05;;;1.30;;
20535;SDS011;10426;49.420;8.390;2023-03-14T05:47:28;2.83;;;1.27;;
20535;SDS011;10426;49.420;8.390;2023-03-14T05:49:55;2.20;;;0.90;;
20535;SDS011;10426;49.420;8.390;2023-03-14T05:52:21;2.38;;;1.08;;
20535;SDS011;10426;49.420;8.390;2023-03-14T05:54:49;2.03;;;1.10;;
20535;SDS011;10426;49.420;8.390;2023-03-14T05:57:16;1.95;;;1.02;;
20535;SDS011;10426;49.420;8.390;2023-03-14T05:59:43;2.13;;;1.10;;
20535;SDS011;10426;49.420;8.390;2023-03-14T06:02:09;2.63;;;1.23;;
20535;SDS011;10426;49.420;8.390;2023-03-14T06:04:36;1.88;;;1.27;;
20535;SDS011;10426;49.420;8.390;2023-03-14T06:07:02;3.90;;;1.30;;
20535;SDS011;10426;49.420;8.390;2023-03-14T06:09:29;2.33;;;1.05;;
20535;SDS011;10426;49.420;8.390;2023-03-14T06:11:57;1.83;;;1.13;;
20535;SDS011;10426;49.420;8.390;2023-03-14T06:14:24;1.95;;;1.20;;
20535;SDS011;10426;49.420;8.390;2023-03-14T06:16:51;2.20;;;1.20;;
20535;SDS011;10426;49.420;8.390;2023-03-14T06:19:18;2.53;;;1.20;;
20535;SDS011;10426;49.420;8.390;2023-03-14T06:21:44;3.70;;;1.10;;
20535;SDS011;10426;49.420;8.390;2023-03-14T06:24:11;1.83;;;1.00;;
20535;SDS011;10426;49.420;8.390;2023-03-14T06:26:38;1.83;;;1.20;;
20535;SDS011;10426;49.420;8.390;2023-03-14T06:29:06;1.85;;;1.10;;
20535;SDS011;10426;49.420;8.390;2023-03-14T06:31:33;3.25;;;1.10;;
20535;SDS011;10426;49.420;8.390;2023-03-14T06:33:59;3.13;;;1.20;;
20535;SDS011;10426;49.420;8.390;2023-03-14T06:36:26;2.83;;;1.30;;
20535;SDS011;10426;49.420;8.390;2023-03-14T06:38:53;2.17;;;1.50;;
20535;SDS011;10426;49.420;8.390;2023-03-14T06:41:19;2.75;;;1.23;;
20535;SDS011;10426;49.420;8.390;2023-03-14T06:43:49;2.90;;;1.38;;
20535;SDS011;10426;49.420;8.390;2023-03-14T06:46:17;2.85;;;1.10;;
20535;SDS011;10426;49.420;8.390;2023-03-14T06:48:43;2.42;;;1.30;;
20535;SDS011;10426;49.420;8.390;2023-03-14T06:51:10;3.72;;;1.88;;
20535;SDS011;10426;49.420;8.390;2023-03-14T06:53:37;3.33;;;1.60;;
20535;SDS011;10426;49.420;8.390;2023-03-14T06:56:04;2.35;;;1.67;;
20535;SDS011;10426;49.420;8.390;2023-03-14T06:58:30;2.70;;;1.45;;
20535;SDS011;10426;49.420;8.390;2023-03-14T07:00:57;1.50;;;1.40;;
20535;SDS011;10426;49.420;8.390;2023-03-14T07:03:25;3.70;;;1.60;;
20535;SDS011;10426;49.420;8.390;2023-03-14T07:05:52;1.80;;;1.33;;
20535;SDS011;10426;49.420;8.390;2023-03-14T07:08:18;1.75;;;1.50;;
20535;SDS011;10426;49.420;8.390;2023-03-14T07:10:45;2.63;;;1.60;;
20535;SDS011;10426;49.420;8.390;2023-03-14T07:13:12;1.53;;;1.13;;
20535;SDS011;10426;49.420;8.390;2023-03-14T07:15:38;3.28;;;1.20;;
20535;SDS011;10426;49.420;8.390;2023-03-14T07:18:05;2.17;;;1.15;;
20535;SDS011;10426;49.420;8.390;2023-03-14T07:20:33;1.90;;;0.95;;
20535;SDS011;10426;49.420;8.390;2023-03-14T07:23:00;2.08;;;1.30;;
20535;SDS011;10426;49.420;8.390;2023-03-14T07:25:28;1.17;;;1.00;;
20535;SDS011;10426;49.420;8.390;2023-03-14T07:27:54;3.03;;;1.00;;
20535;SDS011;10426;49.420;8.390;2023-03-14T07:30:21;1.80;;;0.93;;
20535;SDS011;10426;49.420;8.390;2023-03-14T07:32:48;1.58;;;0.75;;
20535;SDS011;10426;49.420;8.390;2023-03-14T07:35:15;0.95;;;0.70;;
20535;SDS011;10426;49.420;8.390;2023-03-14T07:37:43;2.55;;;0.75;;
20535;SDS011;10426;49.420;8.390;2023-03-14T07:40:10;1.45;;;0.80;;
20535;SDS011;10426;49.420;8.390;2023-03-14T07:42:40;2.95;;;0.80;;
20535;SDS011;10426;49.420;8.390;2023-03-14T07:45:07;1.80;;;0.85;;
20535;SDS011;10426;49.420;8.390;2023-03-14T07:47:34;2.17;;;0.95;;
20535;SDS011;10426;49.420;8.390;2023-03-14T07:50:01;1.92;;;0.80;;
20535;SDS011;10426;49.420;8.390;2023-03-14T07:52:27;2.33;;;1.05;;
20535;SDS011;10426;49.420;8.390;2023-03-14T07:54:55;2.25;;;1.05;;
20535;SDS011;10426;49.420;8.390;2023-03-14T07:57:22;1.88;;;1.05;;
20535;SDS011;10426;49.420;8.390;2023-03-14T07:59:50;1.10;;;0.88;;
20535;SDS011;10426;49.420;8.390;2023-03-14T08:02:16;0.90;;;0.90;;
20535;SDS011;10426;49.420;8.390;2023-03-14T08:04:45;1.30;;;0.80;;
20535;SDS011;10426;49.420;8.390;2023-03-14T08:07:12;2.22;;;1.10;;
20535;SDS011;10426;49.420;8.390;2023-03-14T08:09:38;1.20;;;0.90;;
20535;SDS011;10426;49.420;8.390;2023-03-14T08:12:06;1.27;;;1.13;;
20535;SDS011;10426;49.420;8.390;2023-03-14T08:14:33;1.92;;;1.13;;
20535;SDS011;10426;49.420;8.390;2023-03-14T08:17:00;2.33;;;1.30;;
20535;SDS011;10426;49.420;8.390;2023-03-14T08:19:27;2.22;;;1.13;;
20535;SDS011;10426;49.420;8.390;2023-03-14T08:21:53;4.38;;;1.45;;
20535;SDS011;10426;49.420;8.390;2023-03-14T08:24:20;1.33;;;1.00;;
20535;SDS011;10426;49.420;8.390;2023-03-14T08:26:47;1.67;;;1.05;;
20535;SDS011;10426;49.420;8.390;2023-03-14T08:29:15;1.13;;;0.90;;
20535;SDS011;10426;49.420;8.390;2023-03-14T08:31:41;1.05;;;1.00;;
20535;SDS011;10426;49.420;8.390;2023-03-14T08:34:08;1.35;;;1.00;;
20535;SDS011;10426;49.420;8.390;2023-03-14T08:36:34;1.40;;;0.85;;
20535;SDS011;10426;49.420;8.390;2023-03-14T08:39:01;2.60;;;0.88;;
20535;SDS011;10426;49.420;8.390;2023-03-14T08:41:29;1.25;;;0.80;;
20535;SDS011;10426;49.420;8.390;2023-03-14T08:43:55;1.13;;;0.87;;
20535;SDS011;10426;49.420;8.390;2023-03-14T08:46:23;1.20;;;0.80;;
20535;SDS011;10426;49.420;8.390;2023-03-14T08:48:50;0.85;;;0.60;;
20535;SDS011;10426;49.420;8.390;2023-03-14T08:51:17;1.98;;;0.60;;
20535;SDS011;10426;49.420;8.390;2023-03-14T08:53:43;3.80;;;0.73;;
20535;SDS011;10426;49.420;8.390;2023-03-14T08:56:10;1.10;;;0.77;;
20535;SDS011;10426;49.420;8.390;2023-03-14T08:58:37;1.63;;;0.90;;
20535;SDS011;10426;49.420;8.390;2023-03-14T09:01:04;0.73;;;0.70;;
20535;SDS011;10426;49.420;8.390;2023-03-14T09:03:32;1.13;;;0.50;;
20535;SDS011;10426;49.420;8.390;2023-03-14T09:06:01;1.00;;;0.50;;
20535;SDS011;10426;49.420;8.390;2023-03-14T09:08:29;1.00;;;0.50;;
20535;SDS011;10426;49.420;8.390;2023-03-14T09:10:55;0.45;;;0.43;;
20535;SDS011;10426;49.420;8.390;2023-03-14T09:13:22;0.75;;;0.50;;
20535;SDS011;10426;49.420;8.390;2023-03-14T09:15:50;0.90;;;0.50;;
20535;SDS011;10426;49.420;8.390;2023-03-14T09:18:16;0.50;;;0.50;;
20535;SDS011;10426;49.420;8.390;2023-03-14T09:20:44;0.70;;;0.57;;
20535;SDS011;10426;49.420;8.390;2023-03-14T09:23:11;2.47;;;0.50;;
20535;SDS011;10426;49.420;8.390;2023-03-14T09:25:37;0.97;;;0.57;;
20535;SDS011;10426;49.420;8.390;2023-03-14T09:28:04;0.45;;;0.45;;
20535;SDS011;10426;49.420;8.390;2023-03-14T09:30:31;0.40;;;0.40;;
20535;SDS011;10426;49.420;8.390;2023-03-14T09:32:58;1.15;;;0.50;;
20535;SDS011;10426;49.420;8.390;2023-03-14T09:35:24;0.68;;;0.50;;
20535;SDS011;10426;49.420;8.390;2023-03-14T09:37:52;0.68;;;0.50;;
20535;SDS011;10426;49.420;8.390;2023-03-14T09:40:19;0.68;;;0.55;;
20535;SDS011;10426;49.420;8.390;2023-03-14T09:42:46;1.93;;;0.60;;
20535;SDS011;10426;49.420;8.390;2023-03-14T09:45:15;0.88;;;0.50;;
20535;SDS011;10426;49.420;8.390;2023-03-14T09:47:43;1.00;;;0.50;;
20535;SDS011;10426;49.420;8.390;2023-03-14T09:50:11;0.63;;;0.57;;
20535;SDS011;10426;49.420;8.390;2023-03-14T09:52:38;0.63;;;0.60;;
20535;SDS011;10426;49.420;8.390;2023-03-14T09:55:09;0.65;;;0.65;;
20535;SDS011;10426;49.420;8.390;2023-03-14T09:57:37;0.82;;;0.60;;
20535;SDS011;10426;49.420;8.390;2023-03-14T10:00:06;0.63;;;0.50;;
20535;SDS011;10426;49.420;8.390;2023-03-14T10:02:40;1.63;;;0.50;;
20535;SDS011;10426;49.420;8.390;2023-03-14T10:05:13;1.00;;;0.50;;
20535;SDS011;10426;49.420;8.390;2023-03-14T10:07:40;0.50;;;0.50;;
20535;SDS011;10426;49.420;8.390;2023-03-14T10:10:10;0.90;;;0.90;;
20535;SDS011;10426;49.420;8.390;2023-03-14T10:12:37;0.43;;;0.43;;
20535;SDS011;10426;49.420;8.390;2023-03-14T10:15:05;0.70;;;0.60;;
20535;SDS011;10426;49.420;8.390;2023-03-14T10:17:37;0.60;;;0.60;;
20535;SDS011;10426;49.420;8.390;2023-03-14T10:20:04;0.80;;;0.80;;
20535;SDS011;10426;49.420;8.390;2023-03-14T10:22:32;0.75;;;0.50;;
20535;SDS011;10426;49.420;8.390;2023-03-14T10:25:00;1.92;;;0.60;;
20535;SDS011;10426;49.420;8.390;2023-03-14T10:27:29;1.60;;;0.50;;
20535;SDS011;10426;49.420;8.390;2023-03-14T10:29:57;1.75;;;0.70;;
20535;SDS011;10426;49.420;8.390;2023-03-14T10:32:28;0.47;;;0.40;;
20535;SDS011;10426;49.420;8.390;2023-03-14T10:35:08;0.38;;;0.38;;
20535;SDS011;10426;49.420;8.390;2023-03-14T10:37:47;0.45;;;0.45;;
20535;SDS011;10426;49.420;8.390;2023-03-14T10:40:14;1.10;;;0.60;;
20535;SDS011;10426;49.420;8.390;2023-03-14T10:42:43;0.68;;;0.60;;
20535;SDS011;10426;49.420;8.390;2023-03-14T10:45:22;0.60;;;0.60;;
20535;SDS011;10426;49.420;8.390;2023-03-14T10:47:51;0.50;;;0.50;;
20535;SDS011;10426;49.420;8.390;2023-03-14T10:50:22;0.88;;;0.43;;
20535;SDS011;10426;49.420;8.390;2023-03-14T10:52:49;1.10;;;0.60;;
20535;SDS011;10426;49.420;8.390;2023-03-14T10:55:16;0.70;;;0.70;;
20535;SDS011;10426;49.420;8.390;2023-03-14T10:57:44;1.25;;;1.10;;
20535;SDS011;10426;49.420;8.390;2023-03-14T11:00:14;1.27;;;0.70;;
20535;SDS011;10426;49.420;8.390;2023-03-14T11:02:46;0.90;;;0.50;;
20535;SDS011;10426;49.420;8.390;2023-03-14T11:05:18;0.43;;;0.43;;
20535;SDS011;10426;49.420;8.390;2023-03-14T11:07:47;1.23;;;0.40;;
20535;SDS011;10426;49.420;8.390;2023-03-14T11:10:16;0.50;;;0.50;;
20535;SDS011;10426;49.420;8.390;2023-03-14T11:12:49;0.55;;;0.40;;
20535;SDS011;10426;49.420;8.390;2023-03-14T11:15:19;1.00;;;0.60;;
20535;SDS011;10426;49.420;8.390;2023-03-14T11:17:50;0.40;;;0.40;;
20535;SDS011;10426;49.420;8.390;2023-03-14T11:20:25;0.40;;;0.40;;
20535;SDS011;10426;49.420;8.390;2023-03-14T11:22:55;0.43;;;0.43;;
20535;SDS011;10426;49.420;8.390;2023-03-14T11:25:26;1.88;;;0.40;;
20535;SDS011;10426;49.420;8.390;2023-03-14T11:27:58;1.00;;;0.60;;
20535;SDS011;10426;49.420;8.390;2023-03-14T11:30:30;1.30;;;0.70;;
20535;SDS011;10426;49.420;8.390;2023-03-14T11:33:02;2.00;;;0.90;;
20535;SDS011;10426;49.420;8.390;2023-03-14T11:35:32;1.00;;;1.00;;
20535;SDS011;10426;49.420;8.390;2023-03-14T11:38:02;1.23;;;1.23;;
20535;SDS011;10426;49.420;8.390;2023-03-14T11:40:29;1.00;;;1.00;;
20535;SDS011;10426;49.420;8.390;2023-03-14T11:43:00;0.70;;;0.70;;
20535;SDS011;10426;49.420;8.390;2023-03-14T11:45:30;1.20;;;1.10;;
20535;SDS011;10426;49.420;8.390;2023-03-14T11:48:03;1.30;;;1.20;;
20535;SDS011;10426;49.420;8.390;2023-03-14T11:50:30;1.20;;;1.20;;
20535;SDS011;10426;49.420;8.390;2023-03-14T11:53:01;1.00;;;1.00;;
20535;SDS011;10426;49.420;8.390;2023-03-14T11:55:31;0.70;;;0.70;;
20535;SDS011;10426;49.420;8.390;2023-03-14T11:58:01;0.50;;;0.50;;
20535;SDS011;10426;49.420;8.390;2023-03-14T12:00:29;0.60;;;0.60;;
20535;SDS011;10426;49.420;8.390;2023-03-14T12:02:57;0.50;;;0.50;;
20535;SDS011;10426;49.420;8.390;2023-03-14T12:05:31;1.20;;;0.57;;
20535;SDS011;10426;49.420;8.390;2023-03-14T12:08:04;0.70;;;0.60;;
20535;SDS011;10426;49.420;8.390;2023-03-14T12:10:36;0.50;;;0.50;;
20535;SDS011;10426;49.420;8.390;2023-03-14T12:13:04;0.50;;;0.50;;
20535;SDS011;10426;49.420;8.390;2023-03-14T12:15:33;1.03;;;0.60;;
20535;SDS011;10426;49.420;8.390;2023-03-14T12:18:03;0.77;;;0.50;;
20535;SDS011;10426;49.420;8.390;2023-03-14T12:20:30;1.20;;;0.50;;
20535;SDS011;10426;49.420;8.390;2023-03-14T12:22:57;0.50;;;0.40;;
20535;SDS011;10426;49.420;8.390;2023-03-14T12:25:28;0.60;;;0.50;;
20535;SDS011;10426;49.420;8.390;2023-03-14T12:30:34;0.40;;;0.40;;
20535;SDS011;10426;49.420;8.390;2023-03-14T12:33:20;1.20;;;0.70;;
20535;SDS011;10426;49.420;8.390;2023-03-14T12:35:52;0.80;;;0.70;;
20535;SDS011;10426;49.420;8.390;2023-03-14T12:38:25;0.60;;;0.60;;
20535;SDS011;10426;49.420;8.390;2023-03-14T12:40:57;0.90;;;0.90;;
20535;SDS011;10426;49.420;8.390;2023-03-14T12:43:26;0.60;;;0.60;;
20535;SDS011;10426;49.420;8.390;2023-03-14T12:46:14;0.57;;;0.57;;
20535;SDS011;10426;49.420;8.390;2023-03-14T12:48:42;0.73;;;0.70;;
20535;SDS011;10426;49.420;8.390;2023-03-14T12:51:12;0.45;;;0.45;;
20535;SDS011;10426;49.420;8.390;2023-03-14T12:53:52;0.70;;;0.70;;
20535;SDS011;10426;49.420;8.390;2023-03-14T12:56:26;0.60;;;0.60;;
20535;SDS011;10426;49.420;8.390;2023-03-14T12:59:05;0.68;;;0.68;;
20535;SDS011;10426;49.420;8.390;2023-03-14T13:01:37;0.80;;;0.70;;
20535;SDS011;10426;49.420;8.390;2023-03-14T13:04:11;1.50;;;1.40;;
20535;SDS011;10426;49.420;8.390;2023-03-14T13:06:46;0.80;;;0.80;;
20535;SDS011;10426;49.420;8.390;2023-03-14T13:12:00;1.00;;;0.90;;
20535;SDS011;10426;49.420;8.390;2023-03-14T13:14:28;2.05;;;0.90;;
20535;SDS011;10426;49.420;8.390;2023-03-14T13:16:56;1.35;;;0.80;;
20535;SDS011;10426;49.420;8.390;2023-03-14T13:19:25;1.20;;;0.90;;
20535;SDS011;10426;49.420;8.390;2023-03-14T13:21:54;1.00;;;0.85;;
20535;SDS011;10426;49.420;8.390;2023-03-14T13:24:23;2.40;;;1.00;;
20535;SDS011;10426;49.420;8.390;2023-03-14T13:26:51;0.80;;;0.80;;
20535;SDS011;10426;49.420;8.390;2023-03-14T13:29:20;1.52;;;1.00;;
20535;SDS011;10426;49.420;8.390;2023-03-14T13:31:48;1.23;;;0.80;;
20535;SDS011;10426;49.420;8.390;2023-03-14T13:34:17;0.98;;;0.90;;
20535;SDS011;10426;49.420;8.390;2023-03-14T13:36:43;1.05;;;0.95;;
20535;SDS011;10426;49.420;8.390;2023-03-14T13:39:10;1.30;;;0.98;;
20535;SDS011;10426;49.420;8.390;2023-03-14T13:41:39;2.00;;;0.97;;
20535;SDS011;10426;49.420;8.390;2023-03-14T13:44:07;0.90;;;0.80;;
20535;SDS011;10426;49.420;8.390;2023-03-14T13:46:34;0.80;;;0.80;;
20535;SDS011;10426;49.420;8.390;2023-03-14T13:49:03;1.17;;;1.08;;
20535;SDS011;10426;49.420;8.390;2023-03-14T13:51:31;1.00;;;0.80;;
20535;SDS011;10426;49.420;8.390;2023-03-14T13:53:59;0.70;;;0.70;;
20535;SDS011;10426;49.420;8.390;2023-03-14T13:56:27;1.20;;;0.70;;
20535;SDS011;10426;49.420;8.390;2023-03-14T13:58:54;3.47;;;0.70;;
20535;SDS011;10426;49.420;8.390;2023-03-14T14:01:22;3.80;;;0.60;;
20535;SDS011;10426;49.420;8.390;2023-03-14T14:03:49;0.80;;;0.70;;
20535;SDS011;10426;49.420;8.390;2023-03-14T14:06:20;3.00;;;0.80;;
20535;SDS011;10426;49.420;8.390;2023-03-14T14:08:49;3.03;;;1.10;;
20535;SDS011;10426;49.420;8.390;2023-03-14T14:11:18;1.20;;;0.90;;
20535;SDS011;10426;49.420;8.390;2023-03-14T14:13:47;1.42;;;0.95;;
20535;SDS011;10426;49.420;8.390;2023-03-14T14:16:14;2.58;;;0.93;;
20535;SDS011;10426;49.420;8.390;2023-03-14T14:18:42;1.65;;;1.10;;
20535;SDS011;10426;49.420;8.390;2023-03-14T14:21:09;0.88;;;0.88;;
20535;SDS011;10426;49.420;8.390;2023-03-14T14:23:37;2.20;;;1.00;;
20535;SDS011;10426;49.420;8.390;2023-03-14T14:26:06;0.73;;;0.73;;
20535;SDS011;10426;49.420;8.390;2023-03-14T14:28:33;0.85;;;0.73;;
20535;SDS011;10426;49.420;8.390;2023-03-14T14:31:01;1.20;;;0.90;;
20535;SDS011;10426;49.420;8.390;2023-03-14T14:33:29;0.80;;;0.80;;
20535;SDS011;10426;49.420;8.390;2023-03-14T14:35:56;1.10;;;0.70;;
20535;SDS011;10426;49.420;8.390;2023-03-14T14:38:23;0.87;;;0.87;;
20535;SDS011;10426;49.420;8.390;2023-03-14T14:40:50;2.13;;;0.70;;
20535;SDS011;10426;49.420;8.390;2023-03-14T14:43:20;1.00;;;0.77;;
20535;SDS011;10426;49.420;8.390;2023-03-14T14:45:47;0.70;;;0.60;;
20535;SDS011;10426;49.420;8.390;2023-03-14T14:48:15;2.40;;;0.70;;
20535;SDS011;10426;49.420;8.390;2023-03-14T14:50:48;1.38;;;0.80;;
20535;SDS011;10426;49.420;8.390;2023-03-14T14:53:20;1.20;;;0.93;;
20535;SDS011;10426;49.420;8.390;2023-03-14T14:55:49;0.70;;;0.70;;
20535;SDS011;10426;49.420;8.390;2023-03-14T14:58:20;1.07;;;0.80;;